createdAt,value
2018-07-10T00:02:48.378Z,1.47
2018-07-10T00:05:27.440Z,1.70
2018-07-10T00:09:30.217Z,1.80
2018-07-10T00:11:58.725Z,1.77
2018-07-10T00:14:27.255Z,1.73
2018-07-10T00:16:55.754Z,1.87
2018-07-10T00:19:24.286Z,1.97
2018-07-10T00:21:52.878Z,2.03
2018-07-10T00:24:21.433Z,2.60
2018-07-10T00:26:49.963Z,2.03
2018-07-10T00:29:18.846Z,2.40
2018-07-10T00:31:47.422Z,1.80
2018-07-10T00:34:15.997Z,1.43
2018-07-10T00:36:44.487Z,1.47
2018-07-10T00:39:13.077Z,1.50
2018-07-10T00:41:42.171Z,1.90
2018-07-10T00:44:10.743Z,1.80
2018-07-10T00:46:40.872Z,1.50
2018-07-10T00:49:09.399Z,2.10
2018-07-10T00:51:39.677Z,1.83
2018-07-10T00:54:08.712Z,1.70
2018-07-10T00:56:37.914Z,2.27
2018-07-10T00:59:07.271Z,1.97
2018-07-10T01:01:36.465Z,1.27
2018-07-10T01:04:05.005Z,1.83
2018-07-10T01:06:33.540Z,2.07
2018-07-10T01:09:02.122Z,1.33
2018-07-10T01:11:30.678Z,1.80
2018-07-10T01:13:59.288Z,1.60
2018-07-10T01:16:34.267Z,2.57
2018-07-10T01:19:06.118Z,1.73
2018-07-10T01:21:34.588Z,1.90
2018-07-10T01:24:04.809Z,1.40
2018-07-10T01:26:36.061Z,1.90
2018-07-10T01:29:10.718Z,1.70
2018-07-10T01:31:42.651Z,1.40
2018-07-10T01:34:11.285Z,2.23
2018-07-10T01:36:39.793Z,1.70
2018-07-10T01:39:08.593Z,1.50
2018-07-10T01:41:37.494Z,1.60
2018-07-10T01:44:06.252Z,2.23
2018-07-10T01:46:35.048Z,2.10
2018-07-10T01:49:03.967Z,1.93
2018-07-10T01:51:33.628Z,1.70
2018-07-10T01:54:02.218Z,1.70
2018-07-10T01:56:31.175Z,1.93
2018-07-10T01:58:59.885Z,1.70
2018-07-10T02:01:28.433Z,2.10
2018-07-10T02:03:58.348Z,2.20
2018-07-10T02:06:27.196Z,1.80
2018-07-10T02:08:56.308Z,2.50
2018-07-10T02:11:25.180Z,2.00
2018-07-10T02:13:53.783Z,2.13
2018-07-10T02:16:22.753Z,1.90
2018-07-10T02:18:51.681Z,1.70
2018-07-10T02:21:20.241Z,1.50
2018-07-10T02:23:48.814Z,1.93
2018-07-10T02:26:22.068Z,2.67
2018-07-10T02:28:51.939Z,1.50
2018-07-10T02:31:20.911Z,2.47
2018-07-10T02:33:50.642Z,2.20
2018-07-10T02:36:19.811Z,2.00
2018-07-10T02:38:49.489Z,1.90
2018-07-10T02:41:19.461Z,1.60
2018-07-10T02:43:58.609Z,2.10
2018-07-10T02:46:28.605Z,2.83
2018-07-10T02:49:03.494Z,2.30
2018-07-10T02:51:32.738Z,2.37
2018-07-10T02:54:01.441Z,2.00
2018-07-10T02:56:30.561Z,1.90
2018-07-10T02:59:02.413Z,2.60
2018-07-10T03:01:30.966Z,2.17
2018-07-10T03:04:00.589Z,2.23
2018-07-10T03:06:29.576Z,2.23
2018-07-10T03:08:58.116Z,2.20
2018-07-10T03:11:26.705Z,2.10
2018-07-10T03:13:55.334Z,2.53
2018-07-10T03:16:23.883Z,2.50
2018-07-10T03:18:52.470Z,2.60
2018-07-10T03:21:20.986Z,2.10
2018-07-10T03:23:49.506Z,2.33
2018-07-10T03:26:17.993Z,2.30
2018-07-10T03:28:46.539Z,2.60
2018-07-10T03:31:15.168Z,2.80
2018-07-10T03:33:43.956Z,3.10
2018-07-10T03:36:12.553Z,2.70
2018-07-10T03:38:41.105Z,2.87
2018-07-10T03:41:09.693Z,2.80
2018-07-10T03:43:38.281Z,2.97
2018-07-10T03:46:06.977Z,3.97
2018-07-10T03:48:35.521Z,3.10
2018-07-10T03:51:04.135Z,3.03
2018-07-10T03:53:32.702Z,2.60
2018-07-10T03:56:01.326Z,2.80
2018-07-10T03:58:29.884Z,3.23
2018-07-10T04:00:59.891Z,3.13
2018-07-10T04:03:32.855Z,2.60
2018-07-10T04:06:02.220Z,3.17
2018-07-10T04:08:31.158Z,3.27
2018-07-10T04:11:01.263Z,3.10
2018-07-10T04:13:29.861Z,2.83
2018-07-10T04:16:02.084Z,3.00
2018-07-10T04:18:32.781Z,3.50
2018-07-10T04:21:06.121Z,3.30
2018-07-10T04:23:38.225Z,3.40
2018-07-10T04:26:19.524Z,4.13
2018-07-10T04:28:59.682Z,5.07
2018-07-10T04:32:07.137Z,4.30
2018-07-10T04:34:35.698Z,5.00
2018-07-10T04:37:08.717Z,5.00
2018-07-10T04:39:38.794Z,4.60
2018-07-10T04:42:24.434Z,4.80
2018-07-10T04:45:00.105Z,4.67
2018-07-10T04:48:06.542Z,4.37
2018-07-10T04:50:47.704Z,4.17
2018-07-10T04:53:21.637Z,4.00
2018-07-10T04:55:50.206Z,4.60
2018-07-10T04:58:20.585Z,4.60
2018-07-10T05:00:50.629Z,5.13
2018-07-10T05:03:20.344Z,5.17
2018-07-10T05:05:48.955Z,5.10
2018-07-10T05:08:19.537Z,4.27
2018-07-10T05:10:48.471Z,4.20
2018-07-10T05:13:17.863Z,3.07
2018-07-10T05:15:50.530Z,4.20
2018-07-10T05:18:19.131Z,4.13
2018-07-10T05:20:47.690Z,5.27
2018-07-10T05:23:17.113Z,3.93
2018-07-10T05:25:50.550Z,4.30
2018-07-10T05:28:19.564Z,4.30
2018-07-10T05:30:48.122Z,4.33
2018-07-10T05:33:17.890Z,5.50
2018-07-10T05:35:46.516Z,4.77
2018-07-10T05:38:17.278Z,4.27
2018-07-10T05:40:45.866Z,3.90
2018-07-10T05:43:15.704Z,4.80
2018-07-10T05:45:44.752Z,4.53
2018-07-10T05:48:14.109Z,4.40
2018-07-10T05:50:42.684Z,4.87
2018-07-10T05:53:12.158Z,3.60
2018-07-10T05:55:44.503Z,5.00
2018-07-10T05:58:13.290Z,3.80
2018-07-10T06:00:41.877Z,4.07
2018-07-10T06:03:10.350Z,4.40
2018-07-10T06:05:38.910Z,3.60
2018-07-10T06:08:07.415Z,4.33
2018-07-10T06:10:36.090Z,3.37
2018-07-10T06:13:04.963Z,4.10
2018-07-10T06:15:33.580Z,4.63
2018-07-10T06:18:02.131Z,3.93
2018-07-10T06:20:30.753Z,3.67
2018-07-10T06:22:59.322Z,3.93
2018-07-10T06:25:33.676Z,3.90
2018-07-10T06:28:08.235Z,4.70
2018-07-10T06:30:37.978Z,4.20
2018-07-10T06:33:28.205Z,4.03
2018-07-10T06:36:09.548Z,4.30
2018-07-10T06:38:42.064Z,3.83
2018-07-10T06:41:11.846Z,3.50
2018-07-10T06:43:47.624Z,4.00
2018-07-10T06:46:17.894Z,4.00
2018-07-10T06:48:50.035Z,4.00
2018-07-10T06:51:19.527Z,3.23
2018-07-10T06:53:50.389Z,3.70
2018-07-10T06:56:24.227Z,2.97
2018-07-10T06:58:52.719Z,3.90
2018-07-10T07:01:21.682Z,3.63
2018-07-10T07:03:54.148Z,3.40
2018-07-10T07:06:23.122Z,3.47
2018-07-10T07:08:52.485Z,2.80
2018-07-10T07:11:21.029Z,3.60
2018-07-10T07:13:49.549Z,3.63
2018-07-10T07:16:18.099Z,3.83
2018-07-10T07:18:46.605Z,3.53
2018-07-10T07:21:15.163Z,2.70
2018-07-10T07:23:43.807Z,4.10
2018-07-10T07:26:12.375Z,3.40
2018-07-10T07:28:40.938Z,3.77
2018-07-10T07:31:09.809Z,3.93
2018-07-10T07:33:38.352Z,4.93
2018-07-10T07:36:07.000Z,3.83
2018-07-10T07:38:36.182Z,4.20
2018-07-10T07:41:04.939Z,3.40
2018-07-10T07:43:35.239Z,4.50
2018-07-10T07:46:03.430Z,3.53
2018-07-10T07:48:31.974Z,3.30
2018-07-10T07:51:01.478Z,3.90
2018-07-10T07:53:30.902Z,3.67
2018-07-10T07:55:59.508Z,4.03
2018-07-10T07:58:28.105Z,3.63
2018-07-10T08:00:56.698Z,4.37
2018-07-10T08:03:25.330Z,4.47
2018-07-10T08:05:53.914Z,4.40
2018-07-10T08:08:22.711Z,3.63
2018-07-10T08:10:51.738Z,3.97
2018-07-10T08:13:20.261Z,3.57
2018-07-10T08:15:48.834Z,3.70
2018-07-10T08:18:17.438Z,4.10
2018-07-10T08:20:46.210Z,3.97
2018-07-10T08:23:15.394Z,4.27
2018-07-10T08:25:43.955Z,4.77
2018-07-10T08:28:12.512Z,3.73
2018-07-10T08:30:41.330Z,3.97
2018-07-10T08:33:09.969Z,3.77
2018-07-10T08:35:38.498Z,2.97
2018-07-10T08:38:07.116Z,3.43
2018-07-10T08:40:35.654Z,2.60
2018-07-10T08:43:04.706Z,2.93
2018-07-10T08:45:33.342Z,2.80
2018-07-10T08:48:02.877Z,3.40
2018-07-10T08:50:31.613Z,2.90
2018-07-10T08:53:00.856Z,3.07
2018-07-10T08:55:29.526Z,3.00
2018-07-10T08:57:58.125Z,2.80
2018-07-10T09:00:26.912Z,3.57
2018-07-10T09:02:55.495Z,2.83
2018-07-10T09:05:24.066Z,2.57
2018-07-10T09:07:52.576Z,2.67
2018-07-10T09:10:21.301Z,3.07
2018-07-10T09:12:49.855Z,3.77
2018-07-10T09:15:18.455Z,3.07
2018-07-10T09:17:47.037Z,3.10
2018-07-10T09:20:22.145Z,3.60
2018-07-10T09:22:50.701Z,3.70
2018-07-10T09:25:19.322Z,3.27
2018-07-10T09:27:47.866Z,3.73
2018-07-10T09:30:17.018Z,2.83
2018-07-10T09:32:46.036Z,3.60
2018-07-10T09:35:14.625Z,3.57
2018-07-10T09:37:44.707Z,4.47
2018-07-10T09:40:14.749Z,3.67
2018-07-10T09:42:46.291Z,4.40
2018-07-10T09:45:15.703Z,4.53
2018-07-10T09:47:44.238Z,5.03
2018-07-10T09:50:12.806Z,4.83
2018-07-10T09:52:41.610Z,4.73
2018-07-10T09:55:10.145Z,5.20
2018-07-10T09:57:38.366Z,6.10
2018-07-10T10:00:07.151Z,5.47
2018-07-10T10:02:36.391Z,5.07
2018-07-10T10:05:06.862Z,5.60
2018-07-10T10:07:35.512Z,5.00
2018-07-10T10:10:06.781Z,5.10
2018-07-10T10:12:35.335Z,5.50
2018-07-10T10:15:03.882Z,8.27
2018-07-10T10:17:32.621Z,7.73
2018-07-10T10:20:01.191Z,6.30
2018-07-10T10:22:31.520Z,5.97
2018-07-10T10:25:00.921Z,5.93
2018-07-10T10:27:30.470Z,6.47
2018-07-10T10:30:00.136Z,5.80
2018-07-10T10:32:29.062Z,5.00
2018-07-10T10:34:57.983Z,6.87
2018-07-10T10:37:26.858Z,6.00
2018-07-10T10:39:56.240Z,6.03
2018-07-10T10:42:26.405Z,8.20
2018-07-10T10:44:57.112Z,7.40
2018-07-10T10:47:25.766Z,6.07
2018-07-10T10:49:54.711Z,5.37
2018-07-10T10:52:25.146Z,4.80
2018-07-10T10:54:53.716Z,5.23
2018-07-10T10:57:23.662Z,5.73
2018-07-10T10:59:52.454Z,5.00
2018-07-10T11:02:21.735Z,5.87
2018-07-10T11:04:52.254Z,5.20
2018-07-10T11:07:20.989Z,5.23
2018-07-10T11:09:50.006Z,5.57
2018-07-10T11:12:19.448Z,5.50
2018-07-10T11:14:48.031Z,5.40
2018-07-10T11:17:29.539Z,5.87
2018-07-10T11:20:13.495Z,5.27
2018-07-10T11:22:52.357Z,5.60
2018-07-10T11:25:21.338Z,4.90
2018-07-10T11:28:10.444Z,4.77
2018-07-10T11:30:39.176Z,4.70
2018-07-10T11:33:08.981Z,4.23
2018-07-10T11:35:37.957Z,4.03
2018-07-10T11:38:10.021Z,3.90
2018-07-10T11:40:42.326Z,3.50
2018-07-10T11:43:11.651Z,4.20
2018-07-10T11:45:40.805Z,4.07
2018-07-10T11:48:10.510Z,3.80
2018-07-10T11:50:39.244Z,3.80
2018-07-10T11:53:07.805Z,5.47
2018-07-10T11:55:37.071Z,4.10
2018-07-10T11:58:07.056Z,3.70
2018-07-10T12:00:36.592Z,3.93
2018-07-10T12:03:06.340Z,4.10
2018-07-10T12:05:37.194Z,4.30
2018-07-10T12:08:06.539Z,4.30
2018-07-10T12:10:36.291Z,3.40
2018-07-10T12:13:05.769Z,3.90
2018-07-10T12:15:34.001Z,4.07
2018-07-10T12:18:02.907Z,4.53
2018-07-10T12:20:41.063Z,4.60
2018-07-10T12:23:11.533Z,4.47
2018-07-10T12:25:43.981Z,4.67
2018-07-10T12:28:13.547Z,5.23
2018-07-10T12:30:42.929Z,5.40
2018-07-10T12:33:11.746Z,5.50
2018-07-10T12:35:40.258Z,6.33
2018-07-10T12:38:09.236Z,4.90
2018-07-10T12:40:37.806Z,5.23
2018-07-10T12:43:06.521Z,4.33
2018-07-10T12:45:35.392Z,5.23
2018-07-10T12:48:04.505Z,4.27
2018-07-10T12:50:33.079Z,5.10
2018-07-10T12:53:01.652Z,5.90
2018-07-10T12:55:30.201Z,4.27
2018-07-10T12:57:58.881Z,4.00
2018-07-10T13:00:29.439Z,3.90
2018-07-10T13:02:59.217Z,4.40
2018-07-10T13:05:30.044Z,4.00
2018-07-10T13:07:59.111Z,5.07
2018-07-10T13:10:27.691Z,3.97
2018-07-10T13:12:56.280Z,4.43
2018-07-10T13:15:24.887Z,4.60
2018-07-10T13:17:54.095Z,4.70
2018-07-10T13:20:22.692Z,3.40
2018-07-10T13:22:51.367Z,4.30
2018-07-10T13:25:19.950Z,4.00
2018-07-10T13:27:49.286Z,3.80
2018-07-10T13:30:17.880Z,4.20
2018-07-10T13:32:46.697Z,3.93
2018-07-10T13:35:15.816Z,3.07
2018-07-10T13:37:46.276Z,4.43
2018-07-10T13:40:15.017Z,4.03
2018-07-10T13:42:50.162Z,4.03
2018-07-10T13:45:20.067Z,3.90
2018-07-10T13:47:49.121Z,4.30
2018-07-10T13:50:21.083Z,4.30
2018-07-10T13:52:49.917Z,4.10
2018-07-10T13:55:18.687Z,4.10
2018-07-10T13:57:54.518Z,4.60
2018-07-10T14:00:23.137Z,4.53
2018-07-10T14:02:54.216Z,4.60
2018-07-10T14:05:24.601Z,5.17
2018-07-10T14:07:53.429Z,5.30
2018-07-10T14:10:22.729Z,5.80
2018-07-10T14:12:51.319Z,5.70
2018-07-10T14:15:19.936Z,5.60
2018-07-10T14:17:48.799Z,6.03
2018-07-10T14:20:17.210Z,6.77
2018-07-10T14:22:45.782Z,6.50
2018-07-10T14:25:14.379Z,6.17
2018-07-10T14:27:49.318Z,7.70
2018-07-10T14:30:18.048Z,6.60
2018-07-10T14:32:46.662Z,7.40
2018-07-10T14:35:15.209Z,6.50
2018-07-10T14:37:44.514Z,7.80
2018-07-10T14:40:13.117Z,7.30
2018-07-10T14:42:41.334Z,7.27
2018-07-10T14:45:09.967Z,6.47
2018-07-10T14:47:38.874Z,7.10
2018-07-10T14:50:07.488Z,8.40
2018-07-10T14:52:36.001Z,7.50
2018-07-10T14:55:04.577Z,8.53
2018-07-10T14:57:33.140Z,7.60
2018-07-10T15:00:02.051Z,7.50
2018-07-10T15:02:30.578Z,7.47
2018-07-10T15:04:59.149Z,7.67
2018-07-10T15:07:27.709Z,7.40
2018-07-10T15:09:56.246Z,7.10
2018-07-10T15:12:24.787Z,8.33
2018-07-10T15:14:53.932Z,6.37
2018-07-10T15:17:27.568Z,7.00
2018-07-10T15:19:56.118Z,6.47
2018-07-10T15:22:24.625Z,6.90
2018-07-10T15:24:53.225Z,6.50
2018-07-10T15:27:21.761Z,7.60
2018-07-10T15:29:50.359Z,7.10
2018-07-10T15:32:18.993Z,6.40
2018-07-10T15:34:47.766Z,7.30
2018-07-10T15:37:16.378Z,6.70
2018-07-10T15:39:44.983Z,6.50
2018-07-10T15:42:13.617Z,6.20
2018-07-10T15:44:42.128Z,6.20
2018-07-10T15:47:10.758Z,5.60
2018-07-10T15:49:39.286Z,5.90
2018-07-10T15:52:07.882Z,5.97
2018-07-10T15:54:36.463Z,5.73
2018-07-10T15:57:05.238Z,5.80
2018-07-10T15:59:33.828Z,6.17
2018-07-10T16:02:02.384Z,5.60
2018-07-10T16:04:31.006Z,7.03
2018-07-10T16:06:59.603Z,6.87
2018-07-10T16:09:28.244Z,6.20
2018-07-10T16:12:00.529Z,6.97
2018-07-10T16:14:29.773Z,7.33
2018-07-10T16:16:58.596Z,6.90
2018-07-10T16:19:37.256Z,7.80
2018-07-10T16:22:11.140Z,7.07
2018-07-10T16:24:44.519Z,7.17
2018-07-10T16:27:15.850Z,6.57
2018-07-10T16:29:44.454Z,7.27
2018-07-10T16:32:13.020Z,7.37
2018-07-10T16:34:41.665Z,6.50
2018-07-10T16:37:10.246Z,7.80
2018-07-10T16:39:39.040Z,7.50
2018-07-10T16:42:12.841Z,6.37
2018-07-10T16:44:43.373Z,7.27
2018-07-10T16:47:29.773Z,7.63
2018-07-10T16:50:03.010Z,7.43
2018-07-10T16:52:39.499Z,7.00
2018-07-10T16:55:08.418Z,7.50
2018-07-10T16:57:37.021Z,8.40
2018-07-10T17:00:05.827Z,8.87
2018-07-10T17:02:34.808Z,7.97
2018-07-10T17:05:03.395Z,8.70
2018-07-10T17:07:31.988Z,8.50
2018-07-10T17:10:00.549Z,8.23
2018-07-10T17:12:29.183Z,8.60
2018-07-10T17:14:58.984Z,9.03
2018-07-10T17:17:27.825Z,9.00
2018-07-10T17:19:56.740Z,8.80
2018-07-10T17:22:25.730Z,10.10
2018-07-10T17:24:55.656Z,9.97
2018-07-10T17:27:31.150Z,10.77
2018-07-10T17:30:01.134Z,9.83
2018-07-10T17:32:30.087Z,9.60
2018-07-10T17:34:59.506Z,10.20
2018-07-10T17:37:28.841Z,8.97
2018-07-10T17:40:01.169Z,9.30
2018-07-10T17:42:29.969Z,9.10
2018-07-10T17:44:58.598Z,10.13
2018-07-10T17:47:27.281Z,8.90
2018-07-10T17:49:55.855Z,8.80
2018-07-10T17:52:24.518Z,9.27
2018-07-10T17:54:53.691Z,8.80
2018-07-10T17:57:23.102Z,9.80
2018-07-10T17:59:51.760Z,10.67
2018-07-10T18:02:20.379Z,10.20
2018-07-10T18:04:49.329Z,11.40
2018-07-10T18:07:18.431Z,9.70
2018-07-10T18:09:47.071Z,9.50
2018-07-10T18:12:15.774Z,9.83
2018-07-10T18:14:44.361Z,10.30
2018-07-10T18:17:12.971Z,9.63
2018-07-10T18:19:41.832Z,11.27
2018-07-10T18:22:10.676Z,11.63
2018-07-10T18:24:39.462Z,11.90
2018-07-10T18:27:08.622Z,11.30
2018-07-10T18:29:37.343Z,11.17
2018-07-10T18:32:06.321Z,10.83
2018-07-10T18:34:35.192Z,10.50
2018-07-10T18:37:03.755Z,11.57
2018-07-10T18:39:32.332Z,12.33
2018-07-10T18:42:01.491Z,11.37
2018-07-10T18:44:30.058Z,11.80
2018-07-10T18:46:59.049Z,12.80
2018-07-10T18:49:28.133Z,12.40
2018-07-10T18:51:56.726Z,11.30
2018-07-10T18:54:34.642Z,14.47
2018-07-10T18:57:08.946Z,13.30
2018-07-10T18:59:37.977Z,13.43
2018-07-10T19:02:12.441Z,13.40
2018-07-10T19:05:04.582Z,13.40
2018-07-10T19:07:34.795Z,14.13
2018-07-10T19:10:03.419Z,13.30
2018-07-10T19:12:32.023Z,13.03
2018-07-10T19:15:00.945Z,13.30
2018-07-10T19:17:30.865Z,14.07
2018-07-10T19:20:06.713Z,12.70
2018-07-10T19:23:00.563Z,13.23
2018-07-10T19:25:29.164Z,13.17
2018-07-10T19:27:59.634Z,14.83
2018-07-10T19:30:36.277Z,14.17
2018-07-10T19:33:05.551Z,13.97
2018-07-10T19:35:34.111Z,16.47
2018-07-10T19:38:03.307Z,14.57
2018-07-10T19:40:31.909Z,14.73
2018-07-10T19:43:00.519Z,13.00
2018-07-10T19:45:29.147Z,14.73
2018-07-10T19:47:57.927Z,16.70
2018-07-10T19:50:33.204Z,19.90
2018-07-10T19:53:02.298Z,15.07
2018-07-10T19:55:31.832Z,15.00
2018-07-10T19:58:38.879Z,15.23
2018-07-10T20:01:17.270Z,14.23
2018-07-10T20:03:55.509Z,16.20
2018-07-10T20:06:28.718Z,14.87
2018-07-10T20:09:01.451Z,15.60
2018-07-10T20:11:39.999Z,15.80
2018-07-10T20:14:09.607Z,14.20
2018-07-10T20:16:51.702Z,18.17
2018-07-10T20:19:54.953Z,15.73
2018-07-10T20:22:34.726Z,15.47
2018-07-10T20:25:07.605Z,15.20
2018-07-10T20:27:41.289Z,17.60
2018-07-10T20:30:34.235Z,16.87
2018-07-10T20:33:12.489Z,16.03
2018-07-10T20:35:49.147Z,16.60
2018-07-10T20:38:18.481Z,16.57
2018-07-10T20:40:47.919Z,16.10
2018-07-10T20:43:18.938Z,15.23
2018-07-10T20:45:54.220Z,15.80
2018-07-10T20:49:00.925Z,16.60
2018-07-10T20:51:32.408Z,15.33
2018-07-10T20:54:16.095Z,16.20
2018-07-10T20:56:57.826Z,15.10
2018-07-10T20:59:34.505Z,15.30
2018-07-10T21:02:06.739Z,15.20
2018-07-10T21:05:11.997Z,16.00
2018-07-10T21:07:52.416Z,14.00
2018-07-10T21:10:54.246Z,14.90
2018-07-10T21:13:45.410Z,14.70
2018-07-10T21:16:19.649Z,15.77
2018-07-10T21:19:06.850Z,14.97
2018-07-10T21:21:45.135Z,17.53
2018-07-10T21:24:31.467Z,19.00
2018-07-10T21:27:05.307Z,15.77
2018-07-10T21:30:14.305Z,16.40
2018-07-10T21:32:55.277Z,15.57
2018-07-10T21:35:26.229Z,15.43
2018-07-10T21:41:06.977Z,16.40
2018-07-10T21:43:46.400Z,15.70
2018-07-10T21:46:23.962Z,16.43
2018-07-10T21:49:00.573Z,15.80
2018-07-10T21:51:29.729Z,17.10
2018-07-10T21:53:58.959Z,16.60
2018-07-10T21:56:27.799Z,18.13
2018-07-10T21:58:56.301Z,15.40
2018-07-10T22:01:52.545Z,16.00
2018-07-10T22:04:23.710Z,16.77
2018-07-10T22:06:54.281Z,18.00
2018-07-10T22:09:25.810Z,17.40
2018-07-10T22:11:54.847Z,18.17
2018-07-10T22:14:24.210Z,15.80
2018-07-10T22:16:52.799Z,15.70
2018-07-10T22:19:26.328Z,15.07
2018-07-10T22:21:55.887Z,15.27
2018-07-10T22:24:25.870Z,16.20
2018-07-10T22:26:56.981Z,16.40
2018-07-10T22:29:30.954Z,16.80
2018-07-10T22:32:00.793Z,16.70
2018-07-10T22:34:31.166Z,16.40
2018-07-10T22:37:00.007Z,16.00
2018-07-10T22:39:28.618Z,17.57
2018-07-10T22:41:59.776Z,16.37
2018-07-10T22:44:31.300Z,17.73
2018-07-10T22:47:00.638Z,15.77
2018-07-10T22:49:29.459Z,17.30
2018-07-10T22:52:00.982Z,17.20
2018-07-10T22:54:30.310Z,18.50
2018-07-10T22:56:58.899Z,16.30
2018-07-10T22:59:27.500Z,17.00
2018-07-10T23:01:56.097Z,17.30
2018-07-10T23:04:24.746Z,17.27
2018-07-10T23:06:53.345Z,16.80
2018-07-10T23:09:24.920Z,16.63
2018-07-10T23:11:53.524Z,17.80
2018-07-10T23:14:22.077Z,17.00
2018-07-10T23:16:50.674Z,16.80
2018-07-10T23:19:19.226Z,16.97
2018-07-10T23:21:47.913Z,17.80
2018-07-10T23:24:16.522Z,16.27
2018-07-10T23:26:45.223Z,16.20
2018-07-10T23:29:13.762Z,16.20
2018-07-10T23:31:44.785Z,18.40
2018-07-10T23:34:18.254Z,16.37
2018-07-10T23:36:52.338Z,16.57
2018-07-10T23:39:27.825Z,18.70
2018-07-10T23:42:30.789Z,16.60
2018-07-10T23:45:02.172Z,17.53
2018-07-10T23:47:32.218Z,17.93
2018-07-10T23:50:06.778Z,17.97
2018-07-10T23:53:45.427Z,17.37
2018-07-10T23:56:14.093Z,17.57
2018-07-10T23:58:42.622Z,18.67
